createdAt,value
2022-09-17T00:01:35.752Z,9.53
2022-09-17T00:04:05.123Z,9.54
2022-09-17T00:06:35.896Z,9.55
2022-09-17T00:09:07.847Z,9.55
2022-09-17T00:11:39.844Z,9.55
2022-09-17T00:14:12.845Z,9.55
2022-09-17T00:16:44.087Z,9.55
2022-09-17T00:19:20.384Z,9.56
2022-09-17T00:21:49.103Z,9.56
2022-09-17T00:24:18.787Z,9.55
2022-09-17T00:26:48.906Z,9.55
2022-09-17T00:29:17.570Z,9.54
2022-09-17T00:31:46.382Z,9.54
2022-09-17T00:34:14.971Z,9.53
2022-09-17T00:36:43.674Z,9.53
2022-09-17T00:39:12.725Z,9.52
2022-09-17T00:41:42.515Z,9.52
2022-09-17T00:44:40.184Z,9.52
2022-09-17T00:47:22.274Z,9.51
2022-09-17T00:49:56.106Z,9.48
2022-09-17T00:52:29.535Z,9.47
2022-09-17T00:55:24.027Z,9.45
2022-09-17T00:57:56.488Z,9.45
2022-09-17T01:00:27.170Z,9.43
2022-09-17T01:02:55.973Z,9.41
2022-09-17T01:05:49.310Z,9.40
2022-09-17T01:08:39.580Z,9.37
2022-09-17T01:11:40.716Z,9.35
2022-09-17T01:14:53.971Z,9.35
2022-09-17T01:18:21.931Z,9.34
2022-09-17T01:20:59.112Z,9.34
2022-09-17T01:24:19.687Z,9.34
2022-09-17T01:27:28.496Z,9.34
2022-09-17T01:30:22.729Z,9.34
2022-09-17T01:33:00.013Z,9.35
2022-09-17T01:35:52.360Z,9.34
2022-09-17T01:38:43.518Z,9.34
2022-09-17T01:41:48.274Z,9.35
2022-09-17T01:44:29.356Z,9.35
2022-09-17T01:47:16.681Z,9.36
2022-09-17T01:49:57.594Z,9.37
2022-09-17T01:52:27.947Z,9.38
2022-09-17T01:55:01.045Z,9.39
2022-09-17T01:57:53.105Z,9.40
2022-09-17T02:00:22.323Z,9.40
2022-09-17T02:03:47.100Z,9.40
2022-09-17T02:06:27.299Z,9.41
2022-09-17T02:09:23.402Z,9.42
2022-09-17T02:12:13.601Z,9.42
2022-09-17T02:14:50.663Z,9.42
2022-09-17T02:17:31.449Z,9.44
2022-09-17T02:20:02.232Z,9.46
2022-09-17T02:23:00.222Z,9.47
2022-09-17T02:25:44.390Z,9.49
2022-09-17T02:28:32.862Z,9.51
2022-09-17T02:31:02.292Z,9.55
2022-09-17T02:33:33.379Z,9.58
2022-09-17T02:36:02.653Z,9.62
2022-09-17T02:38:31.894Z,9.67
2022-09-17T02:41:14.541Z,9.71
2022-09-17T02:43:51.148Z,9.76
2022-09-17T02:46:46.406Z,9.81
2022-09-17T02:49:59.350Z,9.88
2022-09-17T02:52:52.319Z,9.95
2022-09-17T02:55:36.502Z,10.03
2022-09-17T02:58:43.457Z,10.10
2022-09-17T03:02:04.128Z,10.19
2022-09-17T03:04:34.001Z,10.28
2022-09-17T03:07:09.135Z,10.36
2022-09-17T03:09:36.891Z,10.44
2022-09-17T03:12:05.582Z,10.52
2022-09-17T03:14:33.491Z,10.59
2022-09-17T03:17:01.756Z,10.68
2022-09-17T03:19:30.014Z,10.75
2022-09-17T03:21:58.012Z,10.83
2022-09-17T03:24:26.106Z,10.89
2022-09-17T03:26:54.085Z,10.96
2022-09-17T03:29:22.509Z,11.01
2022-09-17T03:31:50.323Z,11.06
2022-09-17T03:34:18.761Z,11.09
2022-09-17T03:36:47.537Z,11.15
2022-09-17T03:39:15.907Z,11.19
2022-09-17T03:41:44.459Z,11.24
2022-09-17T03:44:13.230Z,11.28
2022-09-17T03:46:42.813Z,11.31
2022-09-17T03:49:12.046Z,11.35
2022-09-17T03:51:40.563Z,11.39
2022-09-17T03:54:09.357Z,11.43
2022-09-17T03:56:37.160Z,11.47
2022-09-17T03:59:05.021Z,11.51
2022-09-17T04:01:33.277Z,11.54
2022-09-17T04:04:03.834Z,11.58
2022-09-17T04:06:32.311Z,11.61
2022-09-17T04:09:05.353Z,11.64
2022-09-17T04:11:33.570Z,11.67
2022-09-17T04:14:01.505Z,11.68
2022-09-17T04:16:29.677Z,11.71
2022-09-17T04:18:57.965Z,11.73
2022-09-17T04:22:27.386Z,11.75
2022-09-17T04:24:55.992Z,11.78
2022-09-17T04:27:24.299Z,11.80
2022-09-17T04:29:52.047Z,11.82
2022-09-17T04:32:20.405Z,11.85
2022-09-17T04:34:48.967Z,11.88
2022-09-17T04:37:17.058Z,11.90
2022-09-17T04:39:44.801Z,11.92
2022-09-17T04:42:12.959Z,11.94
2022-09-17T04:44:40.657Z,11.93
2022-09-17T04:47:09.317Z,11.93
2022-09-17T04:49:37.894Z,11.96
2022-09-17T04:52:06.117Z,11.99
2022-09-17T04:54:33.914Z,12.03
2022-09-17T04:57:02.042Z,12.07
2022-09-17T04:59:29.899Z,12.09
2022-09-17T05:01:58.125Z,12.11
2022-09-17T05:04:25.974Z,12.14
2022-09-17T05:06:53.793Z,12.16
2022-09-17T05:09:21.552Z,12.19
2022-09-17T05:12:02.681Z,12.23
2022-09-17T05:14:35.824Z,12.27
2022-09-17T05:17:04.526Z,12.30
2022-09-17T05:19:32.370Z,12.33
2022-09-17T05:22:00.126Z,12.36
2022-09-17T05:24:28.794Z,12.40
2022-09-17T05:26:57.832Z,12.44
2022-09-17T05:29:26.484Z,12.48
2022-09-17T05:31:54.398Z,12.51
2022-09-17T05:34:22.135Z,12.53
2022-09-17T05:36:49.902Z,12.56
2022-09-17T05:39:17.655Z,12.61
2022-09-17T05:41:46.327Z,12.68
2022-09-17T05:44:17.994Z,12.76
2022-09-17T05:46:46.963Z,12.82
2022-09-17T05:49:15.376Z,12.82
2022-09-17T05:51:43.763Z,12.83
2022-09-17T05:54:11.550Z,12.84
2022-09-17T05:56:39.436Z,12.84
2022-09-17T05:59:07.437Z,12.84
2022-09-17T06:01:35.308Z,12.83
2022-09-17T06:04:04.869Z,12.86
2022-09-17T06:06:33.621Z,12.88
2022-09-17T06:09:01.827Z,12.92
2022-09-17T06:11:29.995Z,12.99
2022-09-17T06:13:57.794Z,13.03
2022-09-17T06:16:26.090Z,13.06
2022-09-17T06:18:54.185Z,13.14
2022-09-17T06:21:23.201Z,13.18
2022-09-17T06:23:51.510Z,13.24
2022-09-17T06:26:19.567Z,13.28
2022-09-17T06:28:50.097Z,13.32
2022-09-17T06:31:17.969Z,13.33
2022-09-17T06:34:01.986Z,13.31
2022-09-17T06:36:30.188Z,13.31
2022-09-17T06:38:58.363Z,13.31
2022-09-17T06:41:27.442Z,13.31
2022-09-17T06:43:57.574Z,13.32
2022-09-17T06:46:25.956Z,13.31
2022-09-17T06:48:54.328Z,13.30
2022-09-17T06:51:22.909Z,13.32
2022-09-17T06:53:50.863Z,13.34
2022-09-17T06:56:19.499Z,13.40
2022-09-17T06:58:47.717Z,13.53
2022-09-17T07:01:15.501Z,13.56
2022-09-17T07:03:43.893Z,13.53
2022-09-17T07:06:12.784Z,13.50
2022-09-17T07:08:41.708Z,13.49
2022-09-17T07:11:09.829Z,13.47
2022-09-17T07:13:38.035Z,13.52
2022-09-17T07:16:06.688Z,13.64
2022-09-17T07:18:34.677Z,13.83
2022-09-17T07:21:05.384Z,13.88
2022-09-17T07:23:36.434Z,13.90
2022-09-17T07:26:07.690Z,13.92
2022-09-17T07:28:35.831Z,13.92
2022-09-17T07:31:12.411Z,13.91
2022-09-17T07:33:43.542Z,13.92
2022-09-17T07:36:13.395Z,13.99
2022-09-17T07:38:41.437Z,14.03
2022-09-17T07:41:14.778Z,14.04
2022-09-17T07:43:43.910Z,14.07
2022-09-17T07:46:17.949Z,14.13
2022-09-17T07:48:47.576Z,14.21
2022-09-17T07:51:22.213Z,14.32
2022-09-17T07:53:58.617Z,14.40
2022-09-17T07:56:28.011Z,14.50
2022-09-17T07:58:56.938Z,14.58
2022-09-17T08:01:25.050Z,14.64
2022-09-17T08:03:55.284Z,14.68
2022-09-17T08:06:28.620Z,14.73
2022-09-17T08:08:57.900Z,14.74
2022-09-17T08:14:17.538Z,14.72
2022-09-17T08:16:47.760Z,14.73
2022-09-17T08:19:15.883Z,14.73
2022-09-17T08:21:44.185Z,14.74
2022-09-17T08:24:12.053Z,14.88
2022-09-17T08:26:41.354Z,15.13
2022-09-17T08:29:11.424Z,15.31
2022-09-17T08:31:39.290Z,15.43
2022-09-17T08:34:11.331Z,15.59
2022-09-17T08:36:39.907Z,15.75
2022-09-17T08:39:08.653Z,15.83
2022-09-17T08:42:04.852Z,15.88
2022-09-17T08:44:43.887Z,15.94
2022-09-17T08:47:38.781Z,15.95
2022-09-17T08:50:15.026Z,15.84
2022-09-17T08:53:04.410Z,15.81
2022-09-17T08:55:42.773Z,15.90
2022-09-17T08:58:39.164Z,15.93
2022-09-17T09:01:28.167Z,16.00
2022-09-17T09:04:34.077Z,16.04
2022-09-17T09:07:08.400Z,15.97
2022-09-17T09:09:49.706Z,15.86
2022-09-17T09:12:26.984Z,15.81
2022-09-17T09:15:06.977Z,15.82
2022-09-17T09:17:47.062Z,15.83
2022-09-17T09:20:19.920Z,15.84
2022-09-17T09:22:50.916Z,15.88
2022-09-17T09:25:41.757Z,15.90
2022-09-17T09:28:29.538Z,15.93
2022-09-17T09:31:32.979Z,16.02
2022-09-17T09:34:04.582Z,16.09
2022-09-17T09:36:33.943Z,16.13
2022-09-17T09:39:10.515Z,16.14
2022-09-17T09:41:55.918Z,16.20
2022-09-17T09:44:25.573Z,16.33
2022-09-17T09:47:15.967Z,16.45
2022-09-17T09:49:56.385Z,16.56
2022-09-17T09:52:59.948Z,16.62
2022-09-17T09:56:05.506Z,16.65
2022-09-17T09:58:41.315Z,16.73
2022-09-17T10:01:14.625Z,16.80
2022-09-17T10:03:46.185Z,16.94
2022-09-17T10:06:15.467Z,17.03
2022-09-17T10:09:03.250Z,17.09
2022-09-17T10:11:35.466Z,17.23
2022-09-17T10:14:24.585Z,17.35
2022-09-17T10:17:22.666Z,17.49
2022-09-17T10:19:59.881Z,17.62
2022-09-17T10:22:33.308Z,17.67
2022-09-17T10:25:03.748Z,17.70
2022-09-17T10:27:33.050Z,17.75
2022-09-17T10:30:26.035Z,17.79
2022-09-17T10:33:22.082Z,17.87
2022-09-17T10:36:10.237Z,17.98
2022-09-17T10:38:43.827Z,18.11
2022-09-17T10:41:17.709Z,18.23
2022-09-17T10:43:46.015Z,18.41
2022-09-17T10:46:33.997Z,18.61
2022-09-17T10:49:21.123Z,18.76
2022-09-17T10:51:50.149Z,18.89
2022-09-17T10:55:01.732Z,18.99
2022-09-17T10:58:23.511Z,19.10
2022-09-17T11:01:35.940Z,19.16
2022-09-17T11:04:18.846Z,19.25
2022-09-17T11:07:15.315Z,19.31
2022-09-17T11:10:03.648Z,19.37
2022-09-17T11:12:37.452Z,19.27
2022-09-17T11:15:33.084Z,19.31
2022-09-17T11:18:27.186Z,19.36
2022-09-17T11:21:24.855Z,19.34
2022-09-17T11:24:01.798Z,19.32
2022-09-17T11:26:39.405Z,19.23
2022-09-17T11:29:41.079Z,19.10
2022-09-17T11:32:20.516Z,18.80
2022-09-17T11:35:34.996Z,18.51
2022-09-17T11:38:43.352Z,18.22
2022-09-17T11:41:20.269Z,18.01
2022-09-17T11:44:27.629Z,17.97
2022-09-17T11:47:07.601Z,18.06
2022-09-17T11:50:19.781Z,18.17
2022-09-17T11:53:01.008Z,18.33
2022-09-17T11:55:53.888Z,18.40
2022-09-17T11:58:44.435Z,18.42
2022-09-17T12:01:51.753Z,18.41
2022-09-17T12:04:35.360Z,18.33
2022-09-17T12:07:21.875Z,18.34
2022-09-17T12:09:57.307Z,18.37
2022-09-17T12:12:48.483Z,18.44
2022-09-17T12:15:22.694Z,18.54
2022-09-17T12:18:31.720Z,18.55
2022-09-17T12:21:03.686Z,18.44
2022-09-17T12:23:44.320Z,18.44
2022-09-17T12:26:25.989Z,18.48
2022-09-17T12:29:35.547Z,18.45
2022-09-17T12:32:22.259Z,18.41
2022-09-17T12:35:52.735Z,18.36
2022-09-17T12:38:42.951Z,18.37
2022-09-17T12:41:49.551Z,18.44
2022-09-17T12:44:36.339Z,18.67
2022-09-17T12:47:23.491Z,18.89
2022-09-17T12:50:11.887Z,19.06
2022-09-17T12:53:04.402Z,19.28
2022-09-17T12:55:57.616Z,19.43
2022-09-17T12:59:03.509Z,19.41
2022-09-17T13:01:57.512Z,19.26
2022-09-17T13:04:59.384Z,18.89
2022-09-17T13:07:46.146Z,18.58
2022-09-17T13:11:05.656Z,18.45
2022-09-17T13:13:40.176Z,18.12
2022-09-17T13:16:18.295Z,17.85
2022-09-17T13:19:16.384Z,17.71
2022-09-17T13:21:55.751Z,17.55
2022-09-17T13:24:27.252Z,17.49
2022-09-17T13:26:56.129Z,17.45
2022-09-17T13:29:58.321Z,17.50
2022-09-17T13:32:55.522Z,17.60
2022-09-17T13:35:24.856Z,17.78
2022-09-17T13:38:01.171Z,17.96
2022-09-17T13:40:46.779Z,18.10
2022-09-17T13:43:20.099Z,18.15
2022-09-17T13:45:59.358Z,18.12
2022-09-17T13:48:33.866Z,18.10
2022-09-17T13:51:33.620Z,18.07
2022-09-17T13:54:12.824Z,17.98
2022-09-17T13:56:46.658Z,17.97
2022-09-17T13:59:28.189Z,18.09
2022-09-17T14:02:08.619Z,18.26
2022-09-17T14:05:23.337Z,18.40
2022-09-17T14:08:06.657Z,18.36
2022-09-17T14:10:37.859Z,18.23
2022-09-17T14:13:26.650Z,18.12
2022-09-17T14:15:58.393Z,17.91
2022-09-17T14:18:59.233Z,17.77
2022-09-17T14:21:31.723Z,17.65
2022-09-17T14:24:02.781Z,17.46
2022-09-17T14:26:59.567Z,17.22
2022-09-17T14:30:15.299Z,17.01
2022-09-17T14:33:13.857Z,16.88
2022-09-17T14:35:44.508Z,16.82
2022-09-17T14:38:32.615Z,16.81
2022-09-17T14:41:07.839Z,16.87
2022-09-17T14:44:04.550Z,16.98
2022-09-17T14:47:05.437Z,17.06
2022-09-17T14:49:41.237Z,17.07
2022-09-17T14:52:37.659Z,17.13
2022-09-17T14:55:19.918Z,17.27
2022-09-17T14:58:31.037Z,17.45
2022-09-17T15:00:59.244Z,17.59
2022-09-17T15:03:27.365Z,17.63
2022-09-17T15:05:56.560Z,17.61
2022-09-17T15:08:29.023Z,17.51
2022-09-17T15:11:03.472Z,17.33
2022-09-17T15:13:38.561Z,16.99
2022-09-17T15:16:15.222Z,16.71
2022-09-17T15:18:52.765Z,16.55
2022-09-17T15:21:42.472Z,16.37
2022-09-17T15:24:32.550Z,16.24
2022-09-17T15:27:06.977Z,16.08
2022-09-17T15:29:39.231Z,15.94
2022-09-17T15:32:12.436Z,15.82
2022-09-17T15:34:42.256Z,15.76
2022-09-17T15:37:25.666Z,15.65
2022-09-17T15:39:56.775Z,15.59
2022-09-17T15:42:31.471Z,15.56
2022-09-17T15:45:28.496Z,15.55
2022-09-17T15:48:01.266Z,15.65
2022-09-17T15:50:31.418Z,15.68
2022-09-17T15:53:13.987Z,15.68
2022-09-17T15:55:46.016Z,15.61
2022-09-17T15:58:29.926Z,15.55
2022-09-17T16:01:36.762Z,15.48
2022-09-17T16:04:21.238Z,15.38
2022-09-17T16:07:27.598Z,15.33
2022-09-17T16:09:56.810Z,15.29
2022-09-17T16:12:28.958Z,15.24
2022-09-17T16:15:00.899Z,15.18
2022-09-17T16:17:43.428Z,15.10
2022-09-17T16:20:24.011Z,14.96
2022-09-17T16:22:53.371Z,14.63
2022-09-17T16:25:25.554Z,14.33
2022-09-17T16:28:02.944Z,14.08
2022-09-17T16:30:32.293Z,13.87
2022-09-17T16:33:03.695Z,13.73
2022-09-17T16:35:32.477Z,13.61
2022-09-17T16:38:03.372Z,13.50
2022-09-17T16:40:34.591Z,13.47
2022-09-17T16:43:04.012Z,13.43
2022-09-17T16:45:32.586Z,13.36
2022-09-17T16:48:01.324Z,13.31
2022-09-17T16:50:29.240Z,13.25
2022-09-17T16:52:58.677Z,13.17
2022-09-17T16:55:30.427Z,13.09
2022-09-17T16:57:59.531Z,13.02
2022-09-17T17:00:29.248Z,12.97
2022-09-17T17:03:00.175Z,12.91
2022-09-17T17:05:28.807Z,12.85
2022-09-17T17:08:06.566Z,12.77
2022-09-17T17:10:37.362Z,12.67
2022-09-17T17:13:05.942Z,12.58
2022-09-17T17:15:34.999Z,12.52
2022-09-17T17:18:05.166Z,12.50
2022-09-17T17:20:37.429Z,12.49
2022-09-17T17:23:05.647Z,12.43
2022-09-17T17:25:35.175Z,12.39
2022-09-17T17:28:02.980Z,12.39
2022-09-17T17:30:35.052Z,12.38
2022-09-17T17:33:04.218Z,12.38
2022-09-17T17:35:32.118Z,12.37
2022-09-17T17:37:59.919Z,12.36
2022-09-17T17:40:28.783Z,12.36
2022-09-17T17:42:57.941Z,12.32
2022-09-17T17:45:26.144Z,12.28
2022-09-17T17:47:54.175Z,12.24
2022-09-17T17:50:23.855Z,12.21
2022-09-17T17:52:55.148Z,12.19
2022-09-17T17:55:22.954Z,12.16
2022-09-17T17:58:01.130Z,12.11
2022-09-17T18:00:30.377Z,12.06
2022-09-17T18:02:59.097Z,12.00
2022-09-17T18:05:27.408Z,11.95
2022-09-17T18:07:55.897Z,11.92
2022-09-17T18:10:29.867Z,11.88
2022-09-17T18:12:58.534Z,11.84
2022-09-17T18:15:29.290Z,11.80
2022-09-17T18:17:58.872Z,11.76
2022-09-17T18:20:27.514Z,11.69
2022-09-17T18:22:56.544Z,11.62
2022-09-17T18:25:25.353Z,11.57
2022-09-17T18:27:54.869Z,11.51
2022-09-17T18:30:23.523Z,11.47
2022-09-17T18:32:53.289Z,11.41
2022-09-17T18:35:23.524Z,11.38
2022-09-17T18:37:52.097Z,11.33
2022-09-17T18:40:22.105Z,11.30
2022-09-17T18:42:53.207Z,11.26
2022-09-17T18:45:28.866Z,11.23
2022-09-17T18:47:57.390Z,11.20
2022-09-17T18:50:26.422Z,11.16
2022-09-17T18:52:55.171Z,11.13
2022-09-17T18:55:24.864Z,11.09
2022-09-17T18:57:53.539Z,11.03
2022-09-17T19:00:25.311Z,11.01
2022-09-17T19:02:53.887Z,10.97
2022-09-17T19:05:28.771Z,10.94
2022-09-17T19:07:57.584Z,10.90
2022-09-17T19:10:34.784Z,10.87
2022-09-17T19:13:03.844Z,10.83
2022-09-17T19:15:33.727Z,10.80
2022-09-17T19:18:02.639Z,10.77
2022-09-17T19:20:37.251Z,10.73
2022-09-17T19:23:07.144Z,10.71
2022-09-17T19:25:37.198Z,10.68
2022-09-17T19:28:05.614Z,10.65
2022-09-17T19:30:36.117Z,10.62
2022-09-17T19:33:04.732Z,10.59
2022-09-17T19:35:34.002Z,10.55
2022-09-17T19:38:04.872Z,10.52
2022-09-17T19:40:34.415Z,10.48
2022-09-17T19:43:02.818Z,10.46
2022-09-17T19:45:31.131Z,10.43
2022-09-17T19:48:01.903Z,10.40
2022-09-17T19:50:32.141Z,10.38
2022-09-17T19:53:01.083Z,10.36
2022-09-17T19:55:29.232Z,10.33
2022-09-17T19:58:03.832Z,10.30
2022-09-17T20:00:33.774Z,10.27
2022-09-17T20:03:03.746Z,10.24
2022-09-17T20:05:34.191Z,10.22
2022-09-17T20:08:04.334Z,10.19
2022-09-17T20:10:36.574Z,10.17
2022-09-17T20:13:05.305Z,10.15
2022-09-17T20:15:36.500Z,10.13
2022-09-17T20:18:05.055Z,10.12
2022-09-17T20:20:33.447Z,10.09
2022-09-17T20:23:02.033Z,10.07
2022-09-17T20:25:31.031Z,10.05
2022-09-17T20:28:00.275Z,10.04
2022-09-17T20:30:28.411Z,10.02
2022-09-17T20:32:56.265Z,10.00
2022-09-17T20:35:25.819Z,9.98
2022-09-17T20:39:06.587Z,9.96
2022-09-17T20:40:42.697Z,9.94
2022-09-17T20:43:10.875Z,9.92
2022-09-17T20:45:38.970Z,9.91
2022-09-17T20:48:07.139Z,9.89
2022-09-17T20:50:36.619Z,9.89
2022-09-17T20:53:06.199Z,9.90
2022-09-17T20:55:35.161Z,9.90
2022-09-17T20:58:03.858Z,9.88
2022-09-17T21:00:34.221Z,9.87
2022-09-17T21:03:02.785Z,9.86
2022-09-17T21:05:30.985Z,9.85
2022-09-17T21:07:59.707Z,9.85
2022-09-17T21:10:28.436Z,9.84
2022-09-17T21:12:56.935Z,9.82
2022-09-17T21:15:25.326Z,9.80
2022-09-17T21:17:59.604Z,9.78
2022-09-17T21:20:27.508Z,9.76
2022-09-17T21:22:55.979Z,9.75
2022-09-17T21:25:24.064Z,9.74
2022-09-17T21:28:22.331Z,9.73
2022-09-17T21:31:33.001Z,9.71
2022-09-17T21:34:04.886Z,9.68
2022-09-17T21:36:35.845Z,9.66
2022-09-17T21:39:07.195Z,9.64
2022-09-17T21:41:39.913Z,9.62
2022-09-17T21:44:12.995Z,9.60
2022-09-17T21:46:44.075Z,9.58
2022-09-17T21:49:13.885Z,9.57
2022-09-17T21:51:42.953Z,9.55
2022-09-17T21:54:13.808Z,9.51
2022-09-17T21:56:41.736Z,9.48
2022-09-17T21:59:15.138Z,9.44
2022-09-17T22:01:47.145Z,9.41
2022-09-17T22:04:35.084Z,9.40
2022-09-17T22:07:03.213Z,9.39
2022-09-17T22:09:33.853Z,9.39
2022-09-17T22:12:06.639Z,9.39
2022-09-17T22:14:34.695Z,9.40
2022-09-17T22:17:03.219Z,9.42
2022-09-17T22:19:34.682Z,9.44
2022-09-17T22:22:04.863Z,9.47
2022-09-17T22:24:34.535Z,9.50
2022-09-17T22:27:03.551Z,9.52
2022-09-17T22:29:32.428Z,9.55
2022-09-17T22:32:01.047Z,9.58
2022-09-17T22:34:30.107Z,9.63
2022-09-17T22:37:00.022Z,9.68
2022-09-17T22:39:28.740Z,9.73
2022-09-17T22:41:56.575Z,9.78
2022-09-17T22:44:26.049Z,9.83
2022-09-17T22:46:54.651Z,9.87
2022-09-17T22:49:23.256Z,9.89
2022-09-17T22:51:52.792Z,9.91
2022-09-17T22:54:32.806Z,9.90
2022-09-17T22:57:22.490Z,9.90
2022-09-17T22:59:52.934Z,9.88
2022-09-17T23:02:22.588Z,9.86
2022-09-17T23:04:54.036Z,9.85
2022-09-17T23:07:22.530Z,9.83
2022-09-17T23:09:52.219Z,9.78
2022-09-17T23:12:22.371Z,9.75
2022-09-17T23:19:26.519Z,9.66
2022-09-17T23:22:16.953Z,9.61
2022-09-17T23:24:44.918Z,9.58
2022-09-17T23:27:13.066Z,9.56
2022-09-17T23:29:41.867Z,9.54
2022-09-17T23:32:11.488Z,9.53
2022-09-17T23:35:03.597Z,9.52
2022-09-17T23:37:35.676Z,9.50
2022-09-17T23:40:22.499Z,9.48
2022-09-17T23:42:52.339Z,9.46
2022-09-17T23:45:21.555Z,9.42
2022-09-17T23:47:50.107Z,9.39
2022-09-17T23:50:18.925Z,9.37
2022-09-17T23:52:47.007Z,9.34
2022-09-17T23:55:15.132Z,9.31
2022-09-17T23:57:44.185Z,9.28
